Time;durP1;ratioP1;P1;durP2;ratioP2;P2;SDS_P1;SDS_P2;PMS_P1;PMS_P2;Temp;Humidity;BMP_temperature;BMP_pressure;BME280_temperature;BME280_humidity;BME280_pressure;Samples;Min_cycle;Max_cycle;Signal;HPM_P1;HPM_P2
2022/04/29 00:00:05;;;;;;;11.60;6.10;;;;;;;3.61;88.19;100293.53;5066669;28;20059;-41
2022/04/29 00:02:32;;;;;;;9.77;6.40;;;;;;;3.53;88.27;100268.66;5051268;28;20044;-40
2022/04/29 00:04:59;;;;;;;14.90;7.28;;;;;;;3.58;88.16;100283.25;5051096;28;20065;-41
2022/04/29 00:07:24;;;;;;;10.32;6.40;;;;;;;3.59;88.01;100290.13;5051120;28;20072;-40
2022/04/29 00:09:50;;;;;;;12.00;6.90;;;;;;;3.49;88.66;100278.09;5058220;28;20073;-40
2022/04/29 00:12:16;;;;;;;12.50;6.90;;;;;;;3.60;88.76;100296.97;5069784;28;20520;-40
2022/04/29 00:14:41;;;;;;;13.57;7.03;;;;;;;3.58;89.02;100298.69;5053928;28;20036;-40
2022/04/29 00:17:08;;;;;;;10.32;6.93;;;;;;;3.62;89.08;100308.09;5050125;28;20182;-45
2022/04/29 00:19:33;;;;;;;17.42;7.20;;;;;;;3.63;89.12;100308.97;5052036;28;20044;-40
2022/04/29 00:21:59;;;;;;;12.75;7.28;;;;;;;3.53;89.27;100282.38;5052306;28;20402;-40
2022/04/29 00:24:26;;;;;;;11.13;7.13;;;;;;;3.67;88.96;100308.97;5020168;28;20561;-42
2022/04/29 00:26:53;;;;;;;12.77;7.88;;;;;;;3.47;89.25;100273.78;5061938;28;20036;-40
2022/04/29 00:29:19;;;;;;;15.25;7.43;;;;;;;3.67;89.33;100308.97;5048954;28;20037;-40
2022/04/29 00:31:45;;;;;;;15.82;8.15;;;;;;;3.67;89.47;100300.41;5049058;28;20505;-40
2022/04/29 00:34:12;;;;;;;13.68;7.88;;;;;;;3.65;89.20;100302.13;5049500;28;20071;-40
2022/04/29 00:36:38;;;;;;;14.15;8.23;;;;;;;3.51;89.38;100286.63;5052325;28;20432;-40
2022/04/29 00:39:05;;;;;;;12.93;8.00;;;;;;;3.60;89.66;100301.25;5064690;28;20032;-40
2022/04/29 00:41:33;;;;;;;17.63;9.02;;;;;;;3.56;90.12;100300.38;5054317;28;20276;-41
2022/04/29 00:44:07;;;;;;;18.38;8.48;;;;;;;3.54;90.77;100294.38;5048709;28;20044;-40
2022/04/29 00:46:34;;;;;;;15.43;8.85;;;;;;;3.57;90.46;100294.38;5053847;28;20304;-40
2022/04/29 00:49:00;;;;;;;14.73;8.68;;;;;;;3.50;90.65;100284.94;5047630;28;20057;-40
2022/04/29 00:51:26;;;;;;;15.65;8.60;;;;;;;3.50;90.29;100276.38;5053566;28;20040;-40
2022/04/29 00:53:53;;;;;;;17.33;8.90;;;;;;;3.58;90.67;100296.09;5054236;28;20052;-40
2022/04/29 00:56:21;;;;;;;15.57;9.13;;;;;;;3.58;90.82;100292.66;5057647;28;20505;-40
2022/04/29 00:58:52;;;;;;;19.20;8.93;;;;;;;3.60;90.72;100296.13;5063947;28;20053;-40
2022/04/29 01:01:20;;;;;;;14.10;7.95;;;;;;;3.60;90.77;100289.28;5069042;28;20048;-41
2022/04/29 01:03:46;;;;;;;17.08;9.15;;;;;;;3.60;90.78;100293.53;5067163;28;20033;-41
2022/04/29 01:06:12;;;;;;;15.93;9.00;;;;;;;3.57;90.57;100285.81;5062726;28;20079;-40
2022/04/29 01:08:37;;;;;;;17.90;8.88;;;;;;;3.56;90.94;100290.09;5055636;28;20067;-40
2022/04/29 01:11:03;;;;;;;15.02;9.02;;;;;;;3.54;91.41;100288.38;5057950;28;20060;-40
2022/04/29 01:13:29;;;;;;;16.48;9.60;;;;;;;3.51;91.55;100285.81;5045647;28;20569;-39
2022/04/29 01:15:56;;;;;;;18.45;9.20;;;;;;;3.51;91.31;100289.22;5051254;28;20094;-40
2022/04/29 01:18:23;;;;;;;15.65;9.27;;;;;;;3.51;91.48;100281.50;5034378;28;20513;-40
2022/04/29 01:21:00;;;;;;;19.55;9.27;;;;;;;3.38;91.63;100261.75;5038118;28;20036;-39
2022/04/29 01:23:26;;;;;;;17.15;9.48;;;;;;;3.52;91.36;100282.34;5043069;28;20047;-39
2022/04/29 01:25:51;;;;;;;18.58;9.10;;;;;;;3.47;91.34;100277.22;5062131;28;20045;-40
2022/04/29 01:28:17;;;;;;;15.90;9.00;;;;;;;3.49;91.31;100282.38;5052206;28;20159;-40
2022/04/29 01:30:45;;;;;;;20.15;9.18;;;;;;;3.51;91.44;100290.94;5044779;28;20040;-40
2022/04/29 01:33:12;;;;;;;15.57;8.88;;;;;;;3.47;90.74;100284.06;5057015;28;20131;-40
2022/04/29 01:35:38;;;;;;;16.60;8.80;;;;;;;3.46;91.10;100279.75;5050486;28;20041;-39
2022/04/29 01:38:04;;;;;;;15.50;8.00;;;;;;;3.46;90.89;100280.63;5050875;28;20055;-40
2022/04/29 01:40:30;;;;;;;12.73;7.75;;;;;;;3.46;90.92;100278.06;5050680;28;20106;-40
2022/04/29 01:43:02;;;;;;;13.65;7.72;;;;;;;3.50;90.61;100282.38;5047866;28;20643;-40
2022/04/29 01:45:29;;;;;;;13.20;7.95;;;;;;;3.49;90.59;100285.78;5063098;28;20093;-40
2022/04/29 01:48:11;;;;;;;14.85;8.10;;;;;;;3.49;90.36;100284.94;5054283;28;20044;-40
2022/04/29 01:50:48;;;;;;;14.68;7.65;;;;;;;3.49;90.19;100292.66;5049205;28;20094;-40
2022/04/29 01:53:13;;;;;;;12.48;7.45;;;;;;;3.47;90.00;100291.78;5048438;28;20313;-41
2022/04/29 01:55:40;;;;;;;12.50;8.02;;;;;;;3.46;89.95;100296.03;5042739;28;20452;-40
2022/04/29 01:58:07;;;;;;;15.15;7.53;;;;;;;3.45;89.90;100285.78;5038524;28;20044;-39
2022/04/29 02:00:34;;;;;;;14.65;7.50;;;;;;;3.46;89.87;100290.91;5052320;28;20377;-40
2022/04/29 02:02:59;;;;;;;15.77;8.30;;;;;;;3.46;89.55;100283.19;5059375;28;20130;-41
2022/04/29 02:05:25;;;;;;;13.57;7.45;;;;;;;3.49;89.51;100284.94;5054425;28;20057;-41
2022/04/29 02:07:51;;;;;;;11.82;6.47;;;;;;;3.56;89.56;100286.69;5048877;28;20033;-40
2022/04/29 02:10:17;;;;;;;9.63;6.10;;;;;;;3.62;89.28;100291.81;5047451;28;20420;-39
2022/04/29 02:12:46;;;;;;;9.63;6.00;;;;;;;3.65;88.94;100281.56;5062899;28;20047;-40
2022/04/29 02:15:35;;;;;;;10.90;6.05;;;;;;;3.66;88.38;100291.88;5051169;28;20087;-40
2022/04/29 02:18:03;;;;;;;10.05;5.88;;;;;;;3.66;88.07;100281.59;5050931;28;20048;-40
2022/04/29 02:20:29;;;;;;;11.10;5.70;;;;;;;3.72;87.70;100291.84;5067325;28;20037;-40
2022/04/29 02:22:55;;;;;;;10.35;6.15;;;;;;;3.63;87.19;100278.13;5017779;28;20502;-40
2022/04/29 02:25:22;;;;;;;9.52;6.15;;;;;;;3.74;87.14;100289.28;5062326;28;20132;-39
2022/04/29 02:27:48;;;;;;;15.20;6.43;;;;;;;3.77;86.86;100294.44;5048664;28;20037;-40
2022/04/29 02:30:14;;;;;;;12.07;6.38;;;;;;;3.76;86.66;100290.16;5056604;28;20512;-45
2022/04/29 02:32:42;;;;;;;10.95;6.13;;;;;;;3.67;86.40;100279.84;5034238;28;20051;-40
2022/04/29 02:35:08;;;;;;;11.30;6.60;;;;;;;3.76;86.09;100295.31;5047303;28;20036;-40
2022/04/29 02:37:34;;;;;;;13.65;6.78;;;;;;;3.71;86.14;100279.88;5047220;28;20079;-40
2022/04/29 02:40:00;;;;;;;13.90;7.35;;;;;;;3.69;85.81;100298.72;5047406;28;20532;-39
2022/04/29 02:42:28;;;;;;;12.43;7.30;;;;;;;3.58;86.36;100284.97;5050298;28;20049;-39
2022/04/29 02:44:55;;;;;;;13.55;7.15;;;;;;;3.58;87.22;100297.81;5048232;28;20128;-40
2022/04/29 02:47:22;;;;;;;13.98;7.55;;;;;;;3.60;87.21;100294.41;5050653;28;20040;-40
2022/04/29 02:49:48;;;;;;;15.55;7.30;;;;;;;3.58;87.24;100293.53;5068210;28;20415;-39
2022/04/29 02:52:14;;;;;;;12.07;7.45;;;;;;;3.47;87.23;100282.34;5053865;28;20098;-40
2022/04/29 02:54:41;;;;;;;12.57;7.53;;;;;;;3.58;87.22;100293.53;5048013;28;20060;-40
2022/04/29 02:57:27;;;;;;;11.75;7.18;;;;;;;3.55;86.98;100290.09;5041512;28;20052;-40
2022/04/29 02:59:54;;;;;;;10.93;6.50;;;;;;;3.69;86.84;100291.88;5046165;28;20428;-41
2022/04/29 03:02:21;;;;;;;11.55;6.22;;;;;;;3.69;86.29;100293.56;5046645;28;20100;-40
2022/04/29 03:04:47;;;;;;;13.55;6.22;;;;;;;3.68;86.43;100297.00;5048323;28;20527;-41
2022/04/29 03:07:13;;;;;;;12.25;7.38;;;;;;;3.73;86.55;100296.16;5048808;28;20041;-39
2022/04/29 03:09:51;;;;;;;11.32;6.90;;;;;;;3.71;86.06;100304.72;5013015;28;20045;-39
2022/04/29 03:12:44;;;;;;;14.35;7.65;;;;;;;3.59;86.60;100307.25;5047920;28;20052;-41
2022/04/29 03:15:17;;;;;;;14.63;7.68;;;;;;;3.54;86.31;100290.94;5047255;28;20044;-40
2022/04/29 03:20:43;;;;;;;14.88;7.50;;;;;;;3.63;86.24;100312.41;5070697;28;20159;-40
2022/04/29 03:23:10;;;;;;;12.23;7.07;;;;;;;3.71;86.07;100312.44;5054265;28;20489;-41
2022/04/29 03:25:41;;;;;;;12.05;6.60;;;;;;;3.70;85.66;100301.31;5054681;28;20044;-41
2022/04/29 03:28:07;;;;;;;11.80;7.05;;;;;;;3.92;85.46;100325.38;5054563;28;20083;-39
2022/04/29 03:30:34;;;;;;;11.68;6.55;;;;;;;3.96;84.94;100327.09;5036864;28;20051;-40
2022/04/29 03:33:04;;;;;;;14.38;6.70;;;;;;;4.00;84.94;100323.66;5053073;28;20048;-41
2022/04/29 03:35:41;;;;;;;12.52;6.47;;;;;;;4.03;84.09;100335.69;5023839;28;20051;-41
2022/04/29 03:38:11;;;;;;;13.27;6.50;;;;;;;4.07;83.77;100332.25;5066891;28;20051;-41
2022/04/29 03:40:37;;;;;;;11.85;5.97;;;;;;;4.08;83.45;100334.81;5050446;28;20045;-40
2022/04/29 03:43:03;;;;;;;11.82;6.57;;;;;;;4.13;83.27;100330.56;5080201;28;20110;-41
2022/04/29 03:45:30;;;;;;;9.07;5.82;;;;;;;4.22;82.82;100332.28;5044182;28;20041;-40
2022/04/29 03:47:57;;;;;;;9.98;5.72;;;;;;;4.25;82.30;100351.16;5050357;28;20423;-40
2022/04/29 03:50:38;;;;;;;10.50;5.95;;;;;;;4.20;82.01;100345.16;5050006;28;20118;-41
2022/04/29 03:53:12;;;;;;;13.00;6.03;;;;;;;4.18;81.83;100349.44;5049252;28;20045;-41
2022/04/29 03:55:40;;;;;;;13.32;5.43;;;;;;;4.14;81.75;100349.41;5083656;28;20158;-40
2022/04/29 03:58:06;;;;;;;10.57;6.53;;;;;;;4.21;82.02;100341.72;5049214;28;20127;-41
2022/04/29 04:00:47;;;;;;;11.02;6.20;;;;;;;4.17;81.25;100316.84;5021732;28;20041;-41
2022/04/29 04:03:18;;;;;;;10.10;5.40;;;;;;;4.44;80.35;100333.19;5042720;28;20094;-40
2022/04/29 04:06:49;;;;;;;11.98;5.75;;;;;;;4.53;79.98;100334.03;5060172;28;20071;-41
2022/04/29 04:08:30;;;;;;;9.38;5.75;;;;;;;4.61;79.37;100342.59;5049822;28;20052;-40
2022/04/29 04:10:56;;;;;;;8.32;5.25;;;;;;;4.67;78.00;100345.19;5049193;28;20433;-41
2022/04/29 04:13:22;;;;;;;10.30;6.47;;;;;;;4.69;78.04;100342.63;5054027;28;20041;-42
2022/04/29 04:15:56;;;;;;;8.88;5.90;;;;;;;4.75;77.85;100347.78;5063042;28;20056;-40
2022/04/29 04:18:22;;;;;;;9.10;5.32;;;;;;;4.85;77.42;100346.06;5071281;28;20499;-40
2022/04/29 04:20:50;;;;;;;10.93;5.30;;;;;;;4.94;76.85;100340.88;5069693;28;20060;-40
2022/04/29 04:23:15;;;;;;;10.52;5.03;;;;;;;4.89;75.32;100345.19;5054780;28;20087;-40
2022/04/29 04:25:41;;;;;;;9.52;4.95;;;;;;;4.84;74.54;100340.03;5025611;28;20078;-41
2022/04/29 04:28:13;;;;;;;13.93;5.35;;;;;;;4.85;74.94;100348.63;5033041;28;20650;-42
2022/04/29 04:31:10;;;;;;;9.93;5.10;;;;;;;4.88;72.76;100338.31;5047175;28;20040;-40
2022/04/29 04:33:45;;;;;;;10.65;4.25;;;;;;;4.91;72.64;100344.34;5047013;28;20041;-41
2022/04/29 04:36:11;;;;;;;8.73;4.00;;;;;;;4.93;71.62;100344.31;5054572;28;20040;-40
2022/04/29 04:38:37;;;;;;;6.72;4.30;;;;;;;4.99;71.26;100346.88;5052564;28;20055;-40
2022/04/29 04:41:08;;;;;;;9.88;4.60;;;;;;;5.02;70.69;100346.91;5056919;28;20044;-42
2022/04/29 04:43:36;;;;;;;7.75;4.20;;;;;;;5.05;70.47;100352.03;5057912;28;20284;-41
2022/04/29 04:46:06;;;;;;;6.18;4.15;;;;;;;5.13;69.81;100336.56;5056429;28;20044;-40
2022/04/29 04:48:41;;;;;;;5.93;3.60;;;;;;;5.24;69.36;100351.13;5050713;28;20041;-41
2022/04/29 04:51:26;;;;;;;7.20;3.60;;;;;;;5.24;67.90;100348.56;5047874;28;20059;-41
2022/04/29 04:53:55;;;;;;;7.80;3.42;;;;;;;5.29;67.36;100344.25;5066771;28;20128;-41
2022/04/29 04:56:22;;;;;;;6.10;3.47;;;;;;;5.29;67.18;100333.06;5052140;28;20036;-41
2022/04/29 04:58:49;;;;;;;7.43;3.35;;;;;;;5.44;66.26;100348.53;5062991;28;20200;-41
2022/04/29 05:01:16;;;;;;;4.35;2.80;;;;;;;5.43;64.87;100350.25;5068642;28;20044;-41
2022/04/29 05:04:01;;;;;;;4.18;2.78;;;;;;;5.20;63.20;100321.09;5056542;28;20552;-41
2022/04/29 05:06:45;;;;;;;4.35;2.90;;;;;;;5.43;62.85;100351.97;5061952;28;20071;-42
2022/04/29 05:09:11;;;;;;;7.35;2.88;;;;;;;5.36;62.18;100335.66;5044264;28;20045;-41
2022/04/29 05:11:38;;;;;;;6.25;2.85;;;;;;;5.50;61.19;100358.81;5045368;28;20467;-42
2022/04/29 05:14:05;;;;;;;7.10;2.60;;;;;;;5.57;59.96;100351.91;5054571;28;20052;-41
2022/04/29 05:16:36;;;;;;;4.10;2.15;;;;;;;5.67;59.63;100346.72;5049397;28;20132;-41
2022/04/29 05:19:21;;;;;;;8.00;2.90;;;;;;;5.70;58.44;100328.66;5049716;28;20087;-42
2022/04/29 05:21:47;;;;;;;5.78;2.75;;;;;;;5.86;58.24;100345.75;5031069;28;20455;-41
2022/04/29 05:24:13;;;;;;;4.78;2.63;;;;;;;5.96;57.21;100351.78;5051040;28;20047;-42
2022/04/29 05:27:01;;;;;;;2.97;1.95;;;;;;;6.01;54.71;100352.63;5044620;28;20055;-42
2022/04/29 05:29:45;;;;;;;4.20;1.75;;;;;;;5.95;52.16;100344.91;5065580;28;20048;-40
2022/04/29 05:32:31;;;;;;;4.45;2.17;;;;;;;6.00;52.10;100345.75;5049579;28;20040;-41
2022/04/29 05:35:15;;;;;;;4.20;1.63;;;;;;;6.07;52.41;100350.00;5058922;28;20110;-41
2022/04/29 05:38:01;;;;;;;3.05;1.70;;;;;;;6.24;52.11;100344.72;5029693;28;20065;-41
2022/04/29 05:43:13;;;;;;;2.13;1.23;;;;;;;6.46;49.98;100337.69;5047803;28;20071;-42
2022/04/29 05:45:39;;;;;;;1.83;1.10;;;;;;;6.55;46.81;100340.22;5039591;28;20789;-42
2022/04/29 05:48:06;;;;;;;2.97;1.30;;;;;;;6.60;45.56;100339.31;5047857;28;20058;-41
2022/04/29 05:50:33;;;;;;;1.38;1.20;;;;;;;6.59;44.89;100329.88;5047546;28;20041;-41
2022/04/29 05:53:00;;;;;;;1.95;1.20;;;;;;;6.74;42.83;100332.31;5047764;28;20037;-42
2022/04/29 05:55:27;;;;;;;3.80;1.40;;;;;;;6.86;42.19;100338.22;5047843;28;20045;-41
2022/04/29 05:57:58;;;;;;;3.45;1.35;;;;;;;6.76;41.34;100325.41;5031749;28;20063;-42
2022/04/29 06:00:24;;;;;;;2.55;1.17;;;;;;;6.84;38.73;100327.06;5062135;28;20037;-42
2022/04/29 06:03:01;;;;;;;5.60;1.08;;;;;;;6.84;37.69;100327.06;5047048;28;20563;-41
2022/04/29 06:05:29;;;;;;;7.13;1.25;;;;;;;6.97;38.47;100341.56;5031053;28;20517;-42
2022/04/29 06:07:55;;;;;;;2.08;1.00;;;;;;;7.02;37.85;100321.72;5046851;28;20072;-41
2022/04/29 06:10:27;;;;;;;1.98;1.20;;;;;;;7.24;38.57;100338.72;5044528;28;20040;-40
2022/04/29 06:12:54;;;;;;;1.73;0.70;;;;;;;7.28;36.56;100324.88;5048853;28;20037;-42
2022/04/29 06:15:29;;;;;;;1.50;1.00;;;;;;;7.55;37.48;100339.25;5041490;28;20517;-41
2022/04/29 06:18:27;;;;;;;2.78;1.15;;;;;;;7.98;35.26;100337.84;5035905;28;20534;-41
2022/04/29 06:21:28;;;;;;;2.67;0.98;;;;;;;9.13;33.32;100340.38;5032609;28;20481;-42
2022/04/29 06:24:08;;;;;;;2.53;1.00;;;;;;;10.09;30.20;100336.72;5060528;28;20080;-43
2022/04/29 06:26:34;;;;;;;1.80;1.00;;;;;;;11.15;29.53;100324.66;5031760;28;20603;-42
2022/04/29 06:29:00;;;;;;;2.33;1.30;;;;;;;11.93;29.66;100333.78;5008264;28;20143;-41
2022/04/29 06:31:26;;;;;;;4.25;1.23;;;;;;;12.97;27.94;100329.59;5047768;28;20128;-46
2022/04/29 06:34:07;;;;;;;3.65;1.02;;;;;;;14.10;25.36;100332.44;5045852;28;20041;-44
2022/04/29 06:36:35;;;;;;;2.78;1.10;;;;;;;15.51;25.22;100326.63;5046185;28;20053;-42
2022/04/29 06:39:01;;;;;;;3.60;1.23;;;;;;;16.90;24.44;100323.56;5046094;28;20203;-43
2022/04/29 06:41:45;;;;;;;6.07;1.48;;;;;;;18.04;22.70;100328.09;5066810;28;20080;-42
2022/04/29 06:44:22;;;;;;;2.72;1.05;;;;;;;18.80;20.45;100327.28;5050945;28;20599;-42
2022/04/29 06:47:26;;;;;;;1.77;1.02;;;;;;;18.93;18.87;100320.38;5029050;28;20060;-40
2022/04/29 06:50:24;;;;;;;3.33;1.40;;;;;;;19.95;19.12;100327.34;5037184;28;20511;-42
2022/04/29 06:53:08;;;;;;;1.42;1.30;;;;;;;20.62;18.45;100315.97;5044705;28;20491;-44
2022/04/29 06:55:39;;;;;;;2.45;1.40;;;;;;;21.65;17.14;100317.84;5039960;28;20040;-44
2022/04/29 06:58:07;;;;;;;5.55;1.70;;;;;;;21.55;17.69;100309.69;5045094;28;20055;-41
2022/04/29 07:00:38;;;;;;;2.55;1.60;;;;;;;22.34;16.97;100318.13;5024816;28;20056;-42
2022/04/29 07:03:03;;;;;;;4.70;1.48;;;;;;;23.23;16.22;100313.22;5041319;28;20098;-41
2022/04/29 07:05:33;;;;;;;5.28;4.63;;;;;;;24.31;15.93;100314.44;5043005;28;20080;-44
2022/04/29 07:08:05;;;;;;;3.15;1.50;;;;;;;25.40;15.55;100320.38;5010858;28;20032;-44
2022/04/29 07:10:49;;;;;;;6.93;6.30;;;;;;;26.09;14.97;100316.06;5028142;28;20120;-43
2022/04/29 07:13:39;;;;;;;2.50;1.90;;;;;;;26.48;14.88;100319.69;5035615;28;20041;-41
2022/04/29 07:16:05;;;;;;;6.75;2.40;;;;;;;26.03;13.84;100308.59;5051311;28;20044;-40
2022/04/29 07:18:54;;;;;;;1.23;1.10;;;;;;;26.75;13.50;100317.16;5046857;28;20044;-43
2022/04/29 07:21:22;;;;;;;1.30;1.20;;;;;;;26.44;12.37;100295.09;5047715;28;20052;-41
2022/04/29 07:23:48;;;;;;;2.70;1.60;;;;;;;25.95;13.42;100319.13;5043571;28;20424;-41
2022/04/29 07:26:15;;;;;;;2.67;1.30;;;;;;;26.55;13.17;100316.31;5029241;28;20052;-41
2022/04/29 07:28:41;;;;;;;3.03;1.50;;;;;;;26.13;13.41;100310.31;5049924;28;20123;-41
2022/04/29 07:31:07;;;;;;;3.75;1.92;;;;;;;25.41;12.84;100290.94;5063680;28;20425;-41
2022/04/29 07:33:58;;;;;;;3.63;1.33;;;;;;;25.86;13.29;100303.91;5040980;28;20075;-42
2022/04/29 07:42:16;;;;;;;6.65;2.70;;;;;;;28.44;12.02;100299.19;5064599;28;20122;-41
2022/04/29 07:44:42;;;;;;;2.63;1.20;;;;;;;29.02;11.21;100299.59;5072036;28;20041;-41
2022/04/29 07:47:14;;;;;;;3.92;1.40;;;;;;;29.78;11.21;100294.38;5060374;28;20127;-40
2022/04/29 07:49:55;;;;;;;5.55;1.77;;;;;;;29.58;11.09;100295.59;5056590;28;20675;-42
2022/04/29 07:52:22;;;;;;;3.50;1.95;;;;;;;30.20;10.83;100298.94;5043555;28;20041;-42
2022/04/29 07:54:48;;;;;;;2.42;1.30;;;;;;;29.14;10.93;100285.94;5056486;28;20432;-42
2022/04/29 07:57:14;;;;;;;6.10;1.75;;;;;;;29.88;10.64;100307.66;5047068;28;20048;-41
2022/04/29 07:59:41;;;;;;;5.47;1.10;;;;;;;27.91;11.26;100283.03;5022422;28;20136;-40
2022/04/29 08:02:30;;;;;;;2.60;1.30;;;;;;;26.41;11.74;100289.22;5039172;28;20047;-40
2022/04/29 08:04:55;;;;;;;3.75;1.85;;;;;;;26.09;11.66;100255.59;5031558;28;20473;-42
2022/04/29 08:07:22;;;;;;;2.28;1.08;;;;;;;25.82;12.06;100282.03;5042819;28;20048;-43
2022/04/29 08:09:48;;;;;;;3.92;1.40;;;;;;;22.96;14.01;100282.63;5021071;28;20041;-41
2022/04/29 08:12:14;;;;;;;2.80;1.38;;;;;;;21.43;15.15;100262.91;5062232;28;20041;-41
2022/04/29 08:15:03;;;;;;;5.78;1.65;;;;;;;22.13;14.90;100257.94;5056024;28;20049;-42
2022/04/29 08:17:51;;;;;;;5.93;1.65;;;;;;;22.40;14.45;100263.81;5066026;28;20105;-41
2022/04/29 08:20:17;;;;;;;3.45;1.25;;;;;;;22.03;14.48;100264.84;5057898;28;20751;-42
2022/04/29 08:22:47;;;;;;;3.47;1.33;;;;;;;21.93;14.79;100257.50;5077032;28;20140;-41
2022/04/29 08:25:16;;;;;;;3.20;1.33;;;;;;;20.97;15.35;100258.13;5055728;28;20517;-40
2022/04/29 08:27:42;;;;;;;1.88;1.13;;;;;;;20.57;15.28;100249.38;5020811;28;20111;-41
2022/04/29 08:30:09;;;;;;;2.38;1.27;;;;;;;21.38;14.83;100252.66;5053282;28;20037;-39
2022/04/29 08:32:40;;;;;;;1.95;1.08;;;;;;;19.21;16.26;100256.28;5059539;28;20590;-42
2022/04/29 08:35:12;;;;;;;1.45;1.00;;;;;;;17.06;17.95;100245.66;5065770;28;20041;-42
2022/04/29 08:37:43;;;;;;;2.38;1.25;;;;;;;16.06;19.30;100248.06;5034940;28;20041;-42
2022/04/29 08:40:09;;;;;;;2.35;1.17;;;;;;;16.10;19.54;100237.34;5037539;28;20050;-42
2022/04/29 08:42:38;;;;;;;6.40;1.40;;;;;;;16.26;19.52;100242.69;5047193;28;20040;-42
2022/04/29 08:45:10;;;;;;;3.67;1.50;;;;;;;15.94;19.98;100235.53;5060385;28;20098;-42
2022/04/29 08:47:59;;;;;;;2.10;1.17;;;;;;;15.03;20.49;100234.44;5044911;28;20249;-42
2022/04/29 08:50:31;;;;;;;4.38;1.38;;;;;;;14.73;20.85;100228.75;5073384;28;20121;-42
2022/04/29 08:52:57;;;;;;;1.90;1.30;;;;;;;16.90;19.26;100221.94;5082942;28;20040;-42
2022/04/29 09:00:54;;;;;;;2.40;1.33;;;;;;;22.79;15.21;100217.63;5068487;28;20513;-42
2022/04/29 09:03:22;;;;;;;5.68;1.55;;;;;;;23.68;14.07;100215.03;5076190;28;20045;-41
2022/04/29 09:05:48;;;;;;;5.00;1.25;;;;;;;24.84;13.74;100214.25;5060602;28;20147;-43
2022/04/29 09:08:16;;;;;;;3.08;1.17;;;;;;;24.07;14.39;100229.56;5042054;28;20505;-41
2022/04/29 09:10:58;;;;;;;3.25;1.25;;;;;;;21.65;15.25;100199.59;5031345;28;20138;-41
2022/04/29 09:13:29;;;;;;;4.53;1.30;;;;;;;20.72;16.00;100210.53;5048570;28;20036;-40
2022/04/29 09:15:59;;;;;;;1.95;1.00;;;;;;;19.80;16.50;100206.94;5046884;28;20060;-41
2022/04/29 09:18:34;;;;;;;3.40;1.23;;;;;;;18.85;17.09;100198.75;5048235;28;20052;-41
2022/04/29 09:21:10;;;;;;;2.53;1.25;;;;;;;19.45;17.09;100202.09;5049300;28;20060;-42
2022/04/29 09:23:42;;;;;;;2.15;1.13;;;;;;;21.44;15.90;100209.91;5047896;28;20060;-41
2022/04/29 09:26:33;;;;;;;2.65;1.20;;;;;;;21.23;16.22;100200.84;5036980;28;20098;-45
2022/04/29 09:29:19;;;;;;;3.22;1.38;;;;;;;18.17;17.31;100205.41;5048779;28;20476;-42
2022/04/29 09:32:04;;;;;;;2.00;1.27;;;;;;;16.57;18.93;100220.19;5049366;28;20071;-44
2022/04/29 09:34:53;;;;;;;3.95;1.35;;;;;;;15.91;19.76;100198.97;5048556;28;20582;-40
2022/04/29 09:37:21;;;;;;;8.13;1.38;;;;;;;16.31;19.89;100200.50;5048041;28;20098;-43
2022/04/29 09:40:02;;;;;;;2.50;1.13;;;;;;;16.63;19.27;100201.53;5049183;28;20476;-41
2022/04/29 09:42:40;;;;;;;2.50;1.30;;;;;;;16.81;19.15;100204.06;5061015;28;20095;-40
2022/04/29 09:45:33;;;;;;;1.50;1.20;;;;;;;16.80;19.05;100198.91;5038689;28;20048;-40
2022/04/29 09:47:58;;;;;;;2.20;1.48;;;;;;;16.90;19.10;100184.38;5030202;28;20099;-41
2022/04/29 09:50:46;;;;;;;2.38;1.20;;;;;;;16.72;19.28;100187.94;5033870;28;20049;-41
2022/04/29 09:53:20;;;;;;;1.77;1.00;;;;;;;16.05;19.93;100186.03;5009723;28;20041;-42
2022/04/29 09:56:08;;;;;;;2.72;1.15;;;;;;;15.14;20.61;100183.28;5057405;28;20045;-41
2022/04/29 09:58:34;;;;;;;2.25;1.27;;;;;;;14.62;20.82;100169.03;5044763;28;20140;-41
2022/04/29 10:01:02;;;;;;;5.13;1.38;;;;;;;14.65;21.20;100183.75;5029088;28;20045;-41
2022/04/29 10:03:28;;;;;;;2.03;1.10;;;;;;;14.48;21.51;100178.38;5026352;28;20467;-41
2022/04/29 10:05:55;;;;;;;1.70;1.10;;;;;;;14.39;21.62;100184.88;5026393;28;20107;-42
2022/04/29 10:08:25;;;;;;;3.00;1.23;;;;;;;14.30;21.52;100180.81;5026459;28;20120;-41
2022/04/29 10:10:50;;;;;;;;;;;;;;;14.23;21.68;100189.00;5010167;28;20065;-40
2022/04/29 10:13:18;;;;;;;2.85;1.40;;;;;;;14.31;21.65;100165.97;5026120;28;20024;-41
2022/04/29 10:16:11;;;;;;;4.65;1.52;;;;;;;16.38;20.36;100175.66;5050064;28;20514;-40
2022/04/29 10:22:03;;;;;;;2.20;1.23;;;;;;;18.45;17.72;100168.66;5016079;28;20045;-42
2022/04/29 10:24:32;;;;;;;5.28;1.40;;;;;;;17.30;18.40;100183.09;5049290;28;20059;-41
2022/04/29 10:26:58;;;;;;;1.98;1.35;;;;;;;16.33;19.39;100170.59;5047193;28;20540;-42
2022/04/29 10:29:24;;;;;;;2.38;1.40;;;;;;;16.14;19.96;100172.44;5046772;28;20045;-42
2022/04/29 10:32:19;;;;;;;3.05;1.20;;;;;;;15.61;20.48;100169.78;5026595;28;20144;-41
2022/04/29 10:34:44;;;;;;;1.33;1.20;;;;;;;15.49;20.64;100167.75;5030598;28;20055;-43
2022/04/29 10:37:13;;;;;;;9.95;1.55;;;;;;;15.13;20.93;100176.34;5046793;28;20528;-41
2022/04/29 10:39:40;;;;;;;2.38;1.65;;;;;;;15.32;20.80;100165.88;5046682;28;20509;-41
2022/04/29 10:42:10;;;;;;;2.13;1.20;;;;;;;16.33;19.76;100164.53;5048131;28;20120;-41
2022/04/29 10:45:03;;;;;;;2.83;1.50;;;;;;;16.87;19.20;100163.50;5046907;28;20045;-41
2022/04/29 10:47:38;;;;;;;2.45;1.38;;;;;;;16.03;19.61;100164.25;5047866;28;20037;-41
2022/04/29 10:50:37;;;;;;;4.22;1.40;;;;;;;14.85;20.73;100160.19;5039816;28;20128;-41
2022/04/29 10:53:22;;;;;;;3.63;1.92;;;;;;;14.56;21.11;100161.44;5040029;28;20151;-43
2022/04/29 10:55:51;;;;;;;4.38;1.50;;;;;;;14.70;21.29;100150.38;5042081;28;20778;-42
2022/04/29 10:58:45;;;;;;;2.92;1.48;;;;;;;15.24;20.96;100137.41;5047181;28;20509;-42
2022/04/29 11:01:14;;;;;;;6.57;1.75;;;;;;;15.89;20.27;100145.72;5050531;28;20047;-42
2022/04/29 11:03:41;;;;;;;3.35;1.27;;;;;;;15.16;20.47;100131.69;5064710;28;20042;-43
2022/04/29 11:06:09;;;;;;;3.72;1.15;;;;;;;14.61;21.13;100138.53;5049268;28;20088;-42
2022/04/29 11:08:34;;;;;;;2.72;1.30;;;;;;;14.69;21.34;100140.81;5047158;28;20058;-43
2022/04/29 11:11:00;;;;;;;2.72;1.45;;;;;;;14.65;21.79;100158.44;5046623;28;20041;-41
2022/04/29 11:13:50;;;;;;;3.05;1.48;;;;;;;14.12;22.24;100138.91;5046556;28;20059;-43
2022/04/29 11:16:56;;;;;;;2.95;1.13;;;;;;;13.87;22.56;100139.88;5056607;28;20589;-44
2022/04/29 11:20:21;;;;;;;3.45;1.30;;;;;;;15.38;21.82;100138.56;5042683;28;20052;-42
2022/04/29 11:26:00;;;;;;;3.63;1.70;;;;;;;15.58;20.93;100125.38;5046837;28;20044;-41
2022/04/29 11:28:52;;;;;;;2.60;1.27;;;;;;;15.24;21.50;100124.31;5048591;28;20466;-43
2022/04/29 11:31:37;;;;;;;1.53;0.97;;;;;;;14.64;21.92;100138.41;5045080;28;20072;-43
2022/04/29 11:34:07;;;;;;;1.92;1.25;;;;;;;14.24;22.50;100106.97;5028445;28;20057;-44
2022/04/29 11:36:33;;;;;;;4.40;1.17;;;;;;;14.34;22.49;100111.75;5045900;28;20045;-43
2022/04/29 11:38:58;;;;;;;2.95;1.60;;;;;;;14.64;22.09;100101.78;5047717;28;20056;-42
2022/04/29 11:41:27;;;;;;;5.32;1.48;;;;;;;14.62;22.24;100100.13;5049563;28;20040;-41
2022/04/29 11:43:53;;;;;;;4.85;1.35;;;;;;;14.36;22.54;100096.88;5065435;28;20424;-43
2022/04/29 11:46:20;;;;;;;4.13;1.15;;;;;;;13.79;22.63;100096.69;5040399;28;20064;-42
2022/04/29 11:48:55;;;;;;;2.08;1.15;;;;;;;13.28;23.32;100117.91;5042773;28;20061;-43
2022/04/29 11:51:24;;;;;;;2.38;1.02;;;;;;;13.14;23.91;100107.97;5045304;28;20127;-41
2022/04/29 11:53:53;;;;;;;5.07;1.70;;;;;;;13.75;23.39;100095.97;5045795;28;20044;-41
2022/04/29 11:56:19;;;;;;;4.68;1.38;;;;;;;15.08;21.88;100099.75;5045692;28;20072;-42
2022/04/29 11:58:44;;;;;;;1.88;1.20;;;;;;;14.78;21.97;100086.28;5045466;28;20066;-43
2022/04/29 12:01:11;;;;;;;2.17;1.27;;;;;;;14.56;22.32;100077.69;5045793;28;20120;-41
2022/04/29 12:03:46;;;;;;;4.85;1.55;;;;;;;15.29;21.96;100076.94;5046811;28;20157;-42
2022/04/29 12:06:12;;;;;;;3.78;1.20;;;;;;;16.67;20.62;100098.03;5068966;28;20099;-42
2022/04/29 12:08:39;;;;;;;3.35;1.27;;;;;;;17.73;19.61;100073.78;5073827;28;20113;-42
2022/04/29 12:11:27;;;;;;;4.63;1.48;;;;;;;17.60;19.17;100088.56;5037988;28;20036;-42